sensor_id;sensor_type;location;lat;lon;timestamp;P1;P2;P0
79038;PMS5003;68436;55.068;73.284;2023-04-28T00:01:52;16.00;13.00;9.00
79038;PMS5003;68436;55.068;73.284;2023-04-28T00:04:19;16.00;14.00;10.00
79038;PMS5003;68436;55.068;73.284;2023-04-28T00:06:45;23.50;19.50;11.50
79038;PMS5003;68436;55.068;73.284;2023-04-28T00:09:10;13.75;12.00;8.00
79038;PMS5003;68436;55.068;73.284;2023-04-28T00:11:46;16.00;14.50;10.00
79038;PMS5003;68436;55.068;73.284;2023-04-28T00:14:12;17.50;14.50;9.00
79038;PMS5003;68436;55.068;73.284;2023-04-28T00:16:43;14.50;13.00;8.00
79038;PMS5003;68436;55.068;73.284;2023-04-28T00:19:09;19.00;16.00;10.75
79038;PMS5003;68436;55.068;73.284;2023-04-28T00:21:43;14.00;13.00;9.00
79038;PMS5003;68436;55.068;73.284;2023-04-28T00:24:14;19.75;17.00;11.00
79038;PMS5003;68436;55.068;73.284;2023-04-28T00:26:43;14.00;11.50;7.50
79038;PMS5003;68436;55.068;73.284;2023-04-28T00:29:09;18.50;16.00;9.00
79038;PMS5003;68436;55.068;73.284;2023-04-28T00:31:43;13.33;11.33;8.00
79038;PMS5003;68436;55.068;73.284;2023-04-28T00:34:09;15.00;12.00;8.25
79038;PMS5003;68436;55.068;73.284;2023-04-28T00:36:43;11.00;10.00;7.00
79038;PMS5003;68436;55.068;73.284;2023-04-28T00:39:09;14.75;12.75;8.50
79038;PMS5003;68436;55.068;73.284;2023-04-28T00:41:43;13.33;11.33;8.00
79038;PMS5003;68436;55.068;73.284;2023-04-28T00:44:09;15.00;13.75;10.00
79038;PMS5003;68436;55.068;73.284;2023-04-28T00:46:45;16.00;13.50;9.50
79038;PMS5003;68436;55.068;73.284;2023-04-28T00:49:12;14.00;11.00;7.00
79038;PMS5003;68436;55.068;73.284;2023-04-28T00:51:43;16.00;15.00;9.00
79038;PMS5003;68436;55.068;73.284;2023-04-28T00:54:12;17.00;14.00;10.00
79038;PMS5003;68436;55.068;73.284;2023-04-28T00:56:43;17.00;15.00;10.00
79038;PMS5003;68436;55.068;73.284;2023-04-28T00:59:09;16.75;15.00;10.00
79038;PMS5003;68436;55.068;73.284;2023-04-28T01:02:04;16.00;13.33;8.67
79038;PMS5003;68436;55.068;73.284;2023-04-28T01:04:35;14.00;13.00;9.00
79038;PMS5003;68436;55.068;73.284;2023-04-28T01:07:30;14.00;13.00;9.75
79038;PMS5003;68436;55.068;73.284;2023-04-28T01:09:56;12.75;11.50;7.75
79038;PMS5003;68436;55.068;73.284;2023-04-28T01:12:27;13.75;12.00;8.50
79038;PMS5003;68436;55.068;73.284;2023-04-28T01:14:55;19.00;16.00;10.75
79038;PMS5003;68436;55.068;73.284;2023-04-28T01:17:21;14.00;12.67;8.00
79038;PMS5003;68436;55.068;73.284;2023-04-28T01:22:57;20.00;18.00;12.00
79038;PMS5003;68436;55.068;73.284;2023-04-28T01:25:23;19.50;17.00;11.00
79038;PMS5003;68436;55.068;73.284;2023-04-28T01:27:49;18.00;16.00;10.00
79038;PMS5003;68436;55.068;73.284;2023-04-28T01:30:17;21.00;17.00;11.00
79038;PMS5003;68436;55.068;73.284;2023-04-28T01:32:43;18.75;15.75;10.75
79038;PMS5003;68436;55.068;73.284;2023-04-28T01:35:09;17.00;15.00;11.00
79038;PMS5003;68436;55.068;73.284;2023-04-28T01:38:12;46.00;35.25;20.50
79038;PMS5003;68436;55.068;73.284;2023-04-28T01:40:38;23.50;20.00;13.00
79038;PMS5003;68436;55.068;73.284;2023-04-28T01:43:04;25.00;22.00;16.00
79038;PMS5003;68436;55.068;73.284;2023-04-28T01:45:31;24.00;22.00;16.00
79038;PMS5003;68436;55.068;73.284;2023-04-28T01:47:58;11.67;10.67;7.67
79038;PMS5003;68436;55.068;73.284;2023-04-28T01:50:34;18.00;16.00;11.00
79038;PMS5003;68436;55.068;73.284;2023-04-28T01:53:03;18.00;15.33;10.00
79038;PMS5003;68436;55.068;73.284;2023-04-28T01:55:29;17.00;15.00;9.00
79038;PMS5003;68436;55.068;73.284;2023-04-28T01:58:14;19.33;17.67;11.00
79038;PMS5003;68436;55.068;73.284;2023-04-28T02:00:51;17.25;15.00;9.00
79038;PMS5003;68436;55.068;73.284;2023-04-28T02:03:18;16.33;15.00;10.00
79038;PMS5003;68436;55.068;73.284;2023-04-28T02:05:44;15.00;13.00;9.00
79038;PMS5003;68436;55.068;73.284;2023-04-28T02:08:10;19.00;16.00;10.00
79038;PMS5003;68436;55.068;73.284;2023-04-28T02:10:36;13.50;11.50;7.50
79038;PMS5003;68436;55.068;73.284;2023-04-28T02:13:40;13.00;10.67;7.67
79038;PMS5003;68436;55.068;73.284;2023-04-28T02:16:43;16.00;14.00;10.00
79038;PMS5003;68436;55.068;73.284;2023-04-28T02:19:15;13.00;12.00;8.50
79038;PMS5003;68436;55.068;73.284;2023-04-28T02:22:00;14.25;13.00;8.00
79038;PMS5003;68436;55.068;73.284;2023-04-28T02:24:26;14.00;11.75;8.00
79038;PMS5003;68436;55.068;73.284;2023-04-28T02:29:57;14.00;11.00;7.00
79038;PMS5003;68436;55.068;73.284;2023-04-28T02:32:23;13.00;11.50;9.00
79038;PMS5003;68436;55.068;73.284;2023-04-28T02:35:01;16.50;14.00;9.00
79038;PMS5003;68436;55.068;73.284;2023-04-28T02:37:27;20.67;16.67;10.00
79038;PMS5003;68436;55.068;73.284;2023-04-28T02:39:52;16.25;12.00;9.00
79038;PMS5003;68436;55.068;73.284;2023-04-28T02:45:27;17.00;14.00;10.00
79038;PMS5003;68436;55.068;73.284;2023-04-28T02:47:53;20.00;17.00;10.00
79038;PMS5003;68436;55.068;73.284;2023-04-28T02:50:19;17.00;13.25;8.75
79038;PMS5003;68436;55.068;73.284;2023-04-28T02:52:55;20.67;16.00;10.00
79038;PMS5003;68436;55.068;73.284;2023-04-28T02:55:21;14.50;12.00;9.00
79038;PMS5003;68436;55.068;73.284;2023-04-28T02:58:11;10.00;8.00;6.00
79038;PMS5003;68436;55.068;73.284;2023-04-28T03:00:40;8.00;6.00;4.00
79038;PMS5003;68436;55.068;73.284;2023-04-28T03:03:06;20.25;14.75;9.75
79038;PMS5003;68436;55.068;73.284;2023-04-28T03:05:50;21.50;17.50;11.00
79038;PMS5003;68436;55.068;73.284;2023-04-28T03:16:54;13.67;10.67;7.33
79038;PMS5003;68436;55.068;73.284;2023-04-28T03:19:22;13.75;11.00;8.00
79038;PMS5003;68436;55.068;73.284;2023-04-28T03:21:48;15.60;13.00;9.00
79038;PMS5003;68436;55.068;73.284;2023-04-28T03:24:20;14.00;12.00;8.00
79038;PMS5003;68436;55.068;73.284;2023-04-28T03:26:49;17.75;13.75;9.00
79038;PMS5003;68436;55.068;73.284;2023-04-28T03:29:24;16.75;13.00;8.25
79038;PMS5003;68436;55.068;73.284;2023-04-28T03:31:50;12.00;10.00;6.00
79038;PMS5003;68436;55.068;73.284;2023-04-28T03:34:16;15.00;12.00;8.00
79038;PMS5003;68436;55.068;73.284;2023-04-28T03:36:43;13.00;11.50;8.00
79038;PMS5003;68436;55.068;73.284;2023-04-28T03:39:32;17.00;13.50;8.25
79038;PMS5003;68436;55.068;73.284;2023-04-28T03:42:21;23.00;19.33;12.00
79038;PMS5003;68436;55.068;73.284;2023-04-28T03:45:25;13.00;11.00;6.00
79038;PMS5003;68436;55.068;73.284;2023-04-28T03:47:51;12.50;10.25;6.75
79038;PMS5003;68436;55.068;73.284;2023-04-28T03:50:27;10.50;8.25;5.25
79038;PMS5003;68436;55.068;73.284;2023-04-28T03:52:54;14.00;13.00;8.00
79038;PMS5003;68436;55.068;73.284;2023-04-28T03:55:20;16.00;13.00;7.00
79038;PMS5003;68436;55.068;73.284;2023-04-28T03:57:47;16.50;13.00;8.00
79038;PMS5003;68436;55.068;73.284;2023-04-28T04:03:37;16.00;14.00;8.00
79038;PMS5003;68436;55.068;73.284;2023-04-28T04:06:08;11.50;10.00;7.00
79038;PMS5003;68436;55.068;73.284;2023-04-28T04:08:34;13.00;11.00;8.00
79038;PMS5003;68436;55.068;73.284;2023-04-28T04:11:00;16.50;13.75;9.00
79038;PMS5003;68436;55.068;73.284;2023-04-28T04:13:55;12.00;11.00;9.00
79038;PMS5003;68436;55.068;73.284;2023-04-28T04:19:28;10.50;9.00;6.00
79038;PMS5003;68436;55.068;73.284;2023-04-28T04:21:54;11.00;10.00;7.00
79038;PMS5003;68436;55.068;73.284;2023-04-28T04:24:24;13.50;12.00;8.00
79038;PMS5003;68436;55.068;73.284;2023-04-28T04:26:55;16.00;14.00;10.00
79038;PMS5003;68436;55.068;73.284;2023-04-28T04:32:17;11.00;9.00;6.67
79038;PMS5003;68436;55.068;73.284;2023-04-28T04:37:28;24.33;18.00;10.00
79038;PMS5003;68436;55.068;73.284;2023-04-28T04:48:57;25.67;19.00;10.00
79038;PMS5003;68436;55.068;73.284;2023-04-28T04:51:23;13.50;11.00;6.25
79038;PMS5003;68436;55.068;73.284;2023-04-28T04:53:53;24.25;16.50;8.50
79038;PMS5003;68436;55.068;73.284;2023-04-28T04:56:20;16.00;12.00;9.00
79038;PMS5003;68436;55.068;73.284;2023-04-28T04:59:04;13.00;10.00;7.00
79038;PMS5003;68436;55.068;73.284;2023-04-28T05:01:54;15.00;13.25;10.00
79038;PMS5003;68436;55.068;73.284;2023-04-28T05:04:20;15.00;11.00;6.00
79038;PMS5003;68436;55.068;73.284;2023-04-28T05:09:31;12.00;9.00;5.75
79038;PMS5003;68436;55.068;73.284;2023-04-28T05:11:59;14.00;10.67;7.00
79038;PMS5003;68436;55.068;73.284;2023-04-28T05:17:10;25.00;19.00;11.00
79038;PMS5003;68436;55.068;73.284;2023-04-28T05:19:38;14.00;11.25;7.00
79038;PMS5003;68436;55.068;73.284;2023-04-28T05:22:04;13.00;10.00;7.00
79038;PMS5003;68436;55.068;73.284;2023-04-28T05:24:34;18.25;14.00;8.25
79038;PMS5003;68436;55.068;73.284;2023-04-28T05:27:01;18.75;14.00;8.00
79038;PMS5003;68436;55.068;73.284;2023-04-28T05:29:27;21.00;15.50;8.75
79038;PMS5003;68436;55.068;73.284;2023-04-28T05:31:53;18.50;14.00;7.00
79038;PMS5003;68436;55.068;73.284;2023-04-28T05:34:26;19.00;15.00;9.00
79038;PMS5003;68436;55.068;73.284;2023-04-28T05:37:16;56.00;33.33;18.67
79038;PMS5003;68436;55.068;73.284;2023-04-28T05:40:00;19.00;14.75;9.00
79038;PMS5003;68436;55.068;73.284;2023-04-28T05:42:28;20.00;15.00;9.00
79038;PMS5003;68436;55.068;73.284;2023-04-28T05:47:40;16.50;12.25;7.50
79038;PMS5003;68436;55.068;73.284;2023-04-28T05:50:06;18.50;14.00;9.50
79038;PMS5003;68436;55.068;73.284;2023-04-28T05:52:32;17.33;14.33;10.00
79038;PMS5003;68436;55.068;73.284;2023-04-28T05:54:58;34.00;24.00;14.00
79038;PMS5003;68436;55.068;73.284;2023-04-28T05:57:25;24.00;18.00;11.00
79038;PMS5003;68436;55.068;73.284;2023-04-28T05:59:59;30.50;22.25;13.75
79038;PMS5003;68436;55.068;73.284;2023-04-28T06:02:30;15.50;12.75;8.00
79038;PMS5003;68436;55.068;73.284;2023-04-28T06:05:15;18.25;15.00;10.00
79038;PMS5003;68436;55.068;73.284;2023-04-28T06:07:52;16.50;14.00;10.00
79038;PMS5003;68436;55.068;73.284;2023-04-28T06:10:30;18.75;14.00;8.75
79038;PMS5003;68436;55.068;73.284;2023-04-28T06:15:41;18.00;15.00;10.00
79038;PMS5003;68436;55.068;73.284;2023-04-28T06:18:08;21.00;15.50;10.75
79038;PMS5003;68436;55.068;73.284;2023-04-28T06:20:34;21.00;16.00;9.00
79038;PMS5003;68436;55.068;73.284;2023-04-28T06:23:04;21.33;15.33;9.00
79038;PMS5003;68436;55.068;73.284;2023-04-28T06:28:38;19.00;14.00;9.00
79038;PMS5003;68436;55.068;73.284;2023-04-28T06:31:07;13.00;11.00;7.00
79038;PMS5003;68436;55.068;73.284;2023-04-28T06:33:33;14.25;12.00;8.00
79038;PMS5003;68436;55.068;73.284;2023-04-28T06:35:59;17.25;13.00;8.25
79038;PMS5003;68436;55.068;73.284;2023-04-28T06:38:30;14.25;10.75;7.00
79038;PMS5003;68436;55.068;73.284;2023-04-28T06:41:14;19.75;14.00;9.00
79038;PMS5003;68436;55.068;73.284;2023-04-28T06:43:49;21.00;16.00;10.67
79038;PMS5003;68436;55.068;73.284;2023-04-28T06:46:30;14.00;11.00;7.00
79038;PMS5003;68436;55.068;73.284;2023-04-28T06:48:56;16.75;13.00;9.00
79038;PMS5003;68436;55.068;73.284;2023-04-28T06:54:12;15.00;13.00;9.00
79038;PMS5003;68436;55.068;73.284;2023-04-28T07:02:54;20.00;14.00;9.00
79038;PMS5003;68436;55.068;73.284;2023-04-28T07:05:20;13.00;10.50;7.00
79038;PMS5003;68436;55.068;73.284;2023-04-28T07:16:32;14.00;12.50;8.75
79038;PMS5003;68436;55.068;73.284;2023-04-28T07:18:58;63.67;39.67;20.00
79038;PMS5003;68436;55.068;73.284;2023-04-28T07:21:43;7.00;6.50;5.00
79038;PMS5003;68436;55.068;73.284;2023-04-28T07:24:19;11.00;9.00;6.00
79038;PMS5003;68436;55.068;73.284;2023-04-28T07:26:45;11.00;9.50;6.50
79038;PMS5003;68436;55.068;73.284;2023-04-28T07:29:11;9.00;8.00;5.00
79038;PMS5003;68436;55.068;73.284;2023-04-28T07:31:58;15.00;11.00;7.00
79038;PMS5003;68436;55.068;73.284;2023-04-28T07:34:24;13.50;9.75;6.00
79038;PMS5003;68436;55.068;73.284;2023-04-28T07:37:00;10.00;9.00;7.00
79038;PMS5003;68436;55.068;73.284;2023-04-28T07:39:26;11.00;8.75;5.00
79038;PMS5003;68436;55.068;73.284;2023-04-28T07:41:52;12.00;10.00;6.00
79038;PMS5003;68436;55.068;73.284;2023-04-28T07:47:23;12.00;9.00;6.00
79038;PMS5003;68436;55.068;73.284;2023-04-28T07:49:49;14.50;11.50;8.00
79038;PMS5003;68436;55.068;73.284;2023-04-28T07:52:33;11.00;9.67;7.00
79038;PMS5003;68436;55.068;73.284;2023-04-28T07:55:00;12.00;9.00;6.00
79038;PMS5003;68436;55.068;73.284;2023-04-28T07:57:44;11.00;9.67;6.00
79038;PMS5003;68436;55.068;73.284;2023-04-28T08:00:11;10.00;8.00;5.00
79038;PMS5003;68436;55.068;73.284;2023-04-28T08:02:40;16.00;12.00;8.00
79038;PMS5003;68436;55.068;73.284;2023-04-28T08:05:11;16.00;13.00;8.00
79038;PMS5003;68436;55.068;73.284;2023-04-28T08:10:33;11.00;9.75;7.00
79038;PMS5003;68436;55.068;73.284;2023-04-28T08:12:59;33.00;22.00;12.00
79038;PMS5003;68436;55.068;73.284;2023-04-28T08:15:30;11.75;9.00;6.00
79038;PMS5003;68436;55.068;73.284;2023-04-28T08:17:56;11.00;9.00;6.00
79038;PMS5003;68436;55.068;73.284;2023-04-28T08:20:22;11.00;9.00;6.00
79038;PMS5003;68436;55.068;73.284;2023-04-28T08:22:48;9.00;8.25;6.00
79038;PMS5003;68436;55.068;73.284;2023-04-28T08:25:14;44.75;26.75;14.00
79038;PMS5003;68436;55.068;73.284;2023-04-28T08:27:40;15.00;11.00;7.00
79038;PMS5003;68436;55.068;73.284;2023-04-28T08:30:07;13.00;10.75;7.75
79038;PMS5003;68436;55.068;73.284;2023-04-28T08:32:37;13.00;10.00;5.67
79038;PMS5003;68436;55.068;73.284;2023-04-28T08:35:03;14.00;12.50;8.75
79038;PMS5003;68436;55.068;73.284;2023-04-28T08:37:30;10.00;9.00;6.00
79038;PMS5003;68436;55.068;73.284;2023-04-28T08:39:56;14.00;12.00;8.00
79038;PMS5003;68436;55.068;73.284;2023-04-28T08:42:36;18.00;14.00;10.00
79038;PMS5003;68436;55.068;73.284;2023-04-28T08:45:03;16.00;13.25;9.00
79038;PMS5003;68436;55.068;73.284;2023-04-28T08:47:35;17.00;15.00;9.00
79038;PMS5003;68436;55.068;73.284;2023-04-28T08:50:02;13.00;11.00;8.00
79038;PMS5003;68436;55.068;73.284;2023-04-28T08:52:29;14.00;12.00;8.00
79038;PMS5003;68436;55.068;73.284;2023-04-28T08:54:59;18.00;14.00;9.50
79038;PMS5003;68436;55.068;73.284;2023-04-28T08:57:26;15.00;12.50;9.00
79038;PMS5003;68436;55.068;73.284;2023-04-28T08:59:57;19.00;16.50;11.00
79038;PMS5003;68436;55.068;73.284;2023-04-28T09:02:23;13.00;11.00;8.00
79038;PMS5003;68436;55.068;73.284;2023-04-28T09:07:34;18.00;16.00;10.00
79038;PMS5003;68436;55.068;73.284;2023-04-28T09:10:20;34.75;26.00;16.00
79038;PMS5003;68436;55.068;73.284;2023-04-28T09:12:53;28.00;24.00;17.00
79038;PMS5003;68436;55.068;73.284;2023-04-28T09:15:27;60.00;47.00;29.00
79038;PMS5003;68436;55.068;73.284;2023-04-28T09:17:54;56.25;44.00;27.00
79038;PMS5003;68436;55.068;73.284;2023-04-28T09:20:43;36.25;29.75;19.00
79038;PMS5003;68436;55.068;73.284;2023-04-28T09:25:54;30.00;24.50;17.25
79038;PMS5003;68436;55.068;73.284;2023-04-28T09:28:21;29.00;25.00;17.00
79038;PMS5003;68436;55.068;73.284;2023-04-28T09:30:47;26.50;23.00;16.00
79038;PMS5003;68436;55.068;73.284;2023-04-28T09:33:13;23.00;20.33;15.00
79038;PMS5003;68436;55.068;73.284;2023-04-28T09:38:30;34.00;27.33;18.00
79038;PMS5003;68436;55.068;73.284;2023-04-28T09:49:42;35.25;28.50;19.00
79038;PMS5003;68436;55.068;73.284;2023-04-28T09:52:18;40.00;31.00;20.00
79038;PMS5003;68436;55.068;73.284;2023-04-28T09:54:53;52.00;41.00;25.00
79038;PMS5003;68436;55.068;73.284;2023-04-28T09:57:24;24.00;21.25;14.25
79038;PMS5003;68436;55.068;73.284;2023-04-28T09:59:51;25.25;21.50;15.50
79038;PMS5003;68436;55.068;73.284;2023-04-28T10:02:18;27.50;23.25;15.25
79038;PMS5003;68436;55.068;73.284;2023-04-28T10:04:47;26.00;24.00;17.00
79038;PMS5003;68436;55.068;73.284;2023-04-28T10:07:14;35.00;27.00;17.00
79038;PMS5003;68436;55.068;73.284;2023-04-28T10:12:44;34.00;27.00;16.00
79038;PMS5003;68436;55.068;73.284;2023-04-28T10:15:11;43.75;35.50;22.00
79038;PMS5003;68436;55.068;73.284;2023-04-28T10:17:55;24.00;19.00;13.00
79038;PMS5003;68436;55.068;73.284;2023-04-28T10:20:22;28.50;23.25;15.50
79038;PMS5003;68436;55.068;73.284;2023-04-28T10:25:35;17.75;16.00;12.00
79038;PMS5003;68436;55.068;73.284;2023-04-28T10:28:19;17.33;13.00;8.00
79038;PMS5003;68436;55.068;73.284;2023-04-28T10:33:37;19.00;16.00;11.00
79038;PMS5003;68436;55.068;73.284;2023-04-28T10:36:08;20.00;16.75;11.00
79038;PMS5003;68436;55.068;73.284;2023-04-28T10:41:44;44.00;33.50;20.50
79038;PMS5003;68436;55.068;73.284;2023-04-28T10:47:05;68.50;53.00;33.00
79038;PMS5003;68436;55.068;73.284;2023-04-28T10:52:46;43.25;32.00;19.00
79038;PMS5003;68436;55.068;73.284;2023-04-28T11:04:06;61.75;46.75;29.00
79038;PMS5003;68436;55.068;73.284;2023-04-28T11:19:19;48.75;38.50;25.50
79038;PMS5003;68436;55.068;73.284;2023-04-28T11:22:04;52.00;40.67;25.00
79038;PMS5003;68436;55.068;73.284;2023-04-28T11:24:36;52.50;40.50;24.50
79038;PMS5003;68436;55.068;73.284;2023-04-28T11:27:38;33.00;25.00;16.00
79038;PMS5003;68436;55.068;73.284;2023-04-28T11:30:18;13.75;12.00;7.50
79038;PMS5003;68436;55.068;73.284;2023-04-28T11:35:39;67.00;51.00;29.00
79038;PMS5003;68436;55.068;73.284;2023-04-28T11:38:05;32.50;22.75;13.00
79038;PMS5003;68436;55.068;73.284;2023-04-28T11:43:44;52.50;41.00;25.00
79038;PMS5003;68436;55.068;73.284;2023-04-28T11:46:14;36.00;29.00;18.00
79038;PMS5003;68436;55.068;73.284;2023-04-28T11:49:09;14.00;12.00;8.00
79038;PMS5003;68436;55.068;73.284;2023-04-28T11:51:43;12.00;10.00;7.00
79038;PMS5003;68436;55.068;73.284;2023-04-28T11:54:18;11.00;10.00;7.00
79038;PMS5003;68436;55.068;73.284;2023-04-28T11:56:45;41.00;33.50;19.50
79038;PMS5003;68436;55.068;73.284;2023-04-28T11:59:11;21.00;17.00;10.00
79038;PMS5003;68436;55.068;73.284;2023-04-28T12:01:57;30.25;25.00;16.00
79038;PMS5003;68436;55.068;73.284;2023-04-28T12:04:31;50.50;36.25;21.00
79038;PMS5003;68436;55.068;73.284;2023-04-28T12:07:21;59.50;45.25;26.50
79038;PMS5003;68436;55.068;73.284;2023-04-28T12:10:09;68.25;49.75;27.75
79038;PMS5003;68436;55.068;73.284;2023-04-28T12:12:39;59.00;44.00;25.33
79038;PMS5003;68436;55.068;73.284;2023-04-28T12:15:07;36.00;29.00;17.00
79038;PMS5003;68436;55.068;73.284;2023-04-28T12:20:01;25.50;20.75;13.25
79038;PMS5003;68436;55.068;73.284;2023-04-28T12:23:08;25.75;21.00;12.25
79038;PMS5003;68436;55.068;73.284;2023-04-28T12:25:27;49.50;38.50;23.50
79038;PMS5003;68436;55.068;73.284;2023-04-28T12:28:02;276.25;245.00;160.00
79038;PMS5003;68436;55.068;73.284;2023-04-28T12:33:44;363.67;326.33;206.67
79038;PMS5003;68436;55.068;73.284;2023-04-28T12:36:15;354.00;311.25;196.00
79038;PMS5003;68436;55.068;73.284;2023-04-28T12:38:48;355.67;311.00;198.00
79038;PMS5003;68436;55.068;73.284;2023-04-28T12:44:36;272.50;246.00;163.25
79038;PMS5003;68436;55.068;73.284;2023-04-28T12:47:13;242.00;220.67;146.67
79038;PMS5003;68436;55.068;73.284;2023-04-28T12:52:42;299.00;259.00;167.75
79038;PMS5003;68436;55.068;73.284;2023-04-28T12:55:27;314.25;278.75;181.00
79038;PMS5003;68436;55.068;73.284;2023-04-28T12:57:53;332.00;294.67;191.00
79038;PMS5003;68436;55.068;73.284;2023-04-28T13:03:09;393.50;347.00;218.25
79038;PMS5003;68436;55.068;73.284;2023-04-28T13:05:35;434.00;378.75;231.00
79038;PMS5003;68436;55.068;73.284;2023-04-28T13:10:56;399.75;352.75;219.25
79038;PMS5003;68436;55.068;73.284;2023-04-28T13:13:22;393.00;342.33;213.00
79038;PMS5003;68436;55.068;73.284;2023-04-28T13:15:48;375.75;331.00;209.75
79038;PMS5003;68436;55.068;73.284;2023-04-28T13:18:14;344.75;304.00;193.00
79038;PMS5003;68436;55.068;73.284;2023-04-28T13:20:50;313.00;278.00;179.75
79038;PMS5003;68436;55.068;73.284;2023-04-28T13:23:16;301.25;263.00;171.75
79038;PMS5003;68436;55.068;73.284;2023-04-28T13:25:42;275.00;245.25;160.00
79038;PMS5003;68436;55.068;73.284;2023-04-28T13:28:09;271.33;238.67;158.00
79038;PMS5003;68436;55.068;73.284;2023-04-28T13:30:58;263.00;234.00;154.00
79038;PMS5003;68436;55.068;73.284;2023-04-28T13:33:29;256.00;227.67;150.33
79038;PMS5003;68436;55.068;73.284;2023-04-28T13:36:06;250.00;219.50;142.00
79038;PMS5003;68436;55.068;73.284;2023-04-28T13:38:33;241.00;214.67;141.67
79038;PMS5003;68436;55.068;73.284;2023-04-28T13:40:59;219.25;193.75;133.00
79038;PMS5003;68436;55.068;73.284;2023-04-28T13:43:44;191.75;169.50;112.50
79038;PMS5003;68436;55.068;73.284;2023-04-28T13:46:10;169.00;150.00;103.25
79038;PMS5003;68436;55.068;73.284;2023-04-28T13:48:46;141.33;128.67;88.00
79038;PMS5003;68436;55.068;73.284;2023-04-28T13:51:12;135.00;122.00;85.75
79038;PMS5003;68436;55.068;73.284;2023-04-28T13:53:46;143.33;128.00;85.67
79038;PMS5003;68436;55.068;73.284;2023-04-28T13:56:12;150.00;134.25;92.00
79038;PMS5003;68436;55.068;73.284;2023-04-28T13:58:42;153.67;138.00;94.00
79038;PMS5003;68436;55.068;73.284;2023-04-28T14:03:53;152.75;136.00;94.75
79038;PMS5003;68436;55.068;73.284;2023-04-28T14:06:47;155.20;138.00;95.40
79038;PMS5003;68436;55.068;73.284;2023-04-28T14:09:32;163.00;146.75;100.75
79038;PMS5003;68436;55.068;73.284;2023-04-28T14:11:58;177.00;155.67;104.67
79038;PMS5003;68436;55.068;73.284;2023-04-28T14:14:45;202.00;181.25;120.50
79038;PMS5003;68436;55.068;73.284;2023-04-28T14:17:11;215.00;188.67;128.00
79038;PMS5003;68436;55.068;73.284;2023-04-28T14:19:37;231.00;201.00;133.00
79038;PMS5003;68436;55.068;73.284;2023-04-28T14:24:48;352.00;306.00;191.00
79038;PMS5003;68436;55.068;73.284;2023-04-28T14:27:14;507.33;434.00;247.00
79038;PMS5003;68436;55.068;73.284;2023-04-28T14:29:40;556.50;472.50;271.25
79038;PMS5003;68436;55.068;73.284;2023-04-28T14:32:25;579.00;487.75;273.75
79038;PMS5003;68436;55.068;73.284;2023-04-28T14:34:51;582.75;495.25;277.50
79038;PMS5003;68436;55.068;73.284;2023-04-28T14:37:17;584.00;496.33;277.67
79038;PMS5003;68436;55.068;73.284;2023-04-28T14:39:43;594.00;500.00;277.75
79038;PMS5003;68436;55.068;73.284;2023-04-28T14:42:19;611.00;512.00;276.33
79038;PMS5003;68436;55.068;73.284;2023-04-28T14:47:48;644.33;543.00;291.67
79038;PMS5003;68436;55.068;73.284;2023-04-28T14:50:24;593.00;502.50;281.00
79038;PMS5003;68436;55.068;73.284;2023-04-28T14:52:50;581.33;487.67;275.33
79038;PMS5003;68436;55.068;73.284;2023-04-28T14:58:01;594.00;502.50;279.50
79038;PMS5003;68436;55.068;73.284;2023-04-28T15:03:22;610.50;515.75;289.75
79038;PMS5003;68436;55.068;73.284;2023-04-28T15:05:48;589.50;499.50;277.25
79038;PMS5003;68436;55.068;73.284;2023-04-28T15:08:16;581.67;487.33;274.00
79038;PMS5003;68436;55.068;73.284;2023-04-28T15:10:42;580.00;486.75;271.75
79038;PMS5003;68436;55.068;73.284;2023-04-28T15:13:08;585.75;487.25;277.00
79038;PMS5003;68436;55.068;73.284;2023-04-28T15:15:34;618.00;519.50;288.00
79038;PMS5003;68436;55.068;73.284;2023-04-28T15:20:45;661.50;552.00;299.25
79038;PMS5003;68436;55.068;73.284;2023-04-28T15:23:11;656.67;548.67;302.67
79038;PMS5003;68436;55.068;73.284;2023-04-28T15:25:42;680.25;567.00;311.00
79038;PMS5003;68436;55.068;73.284;2023-04-28T15:30:53;681.00;567.75;305.50
79038;PMS5003;68436;55.068;73.284;2023-04-28T15:33:19;675.33;563.67;301.33
79038;PMS5003;68436;55.068;73.284;2023-04-28T15:38:29;678.00;570.00;306.67
79038;PMS5003;68436;55.068;73.284;2023-04-28T15:40:56;670.00;561.00;303.75
79038;PMS5003;68436;55.068;73.284;2023-04-28T15:43:22;643.33;534.33;287.33
79038;PMS5003;68436;55.068;73.284;2023-04-28T15:48:58;648.75;543.25;300.25
79038;PMS5003;68436;55.068;73.284;2023-04-28T15:51:24;644.00;533.75;291.50
79038;PMS5003;68436;55.068;73.284;2023-04-28T15:53:55;631.50;525.00;287.50
79038;PMS5003;68436;55.068;73.284;2023-04-28T15:56:21;626.25;525.25;291.50
79038;PMS5003;68436;55.068;73.284;2023-04-28T15:58:48;608.25;511.00;287.25
79038;PMS5003;68436;55.068;73.284;2023-04-28T16:07:16;587.67;497.67;281.00
79038;PMS5003;68436;55.068;73.284;2023-04-28T16:12:42;591.00;495.75;277.75
79038;PMS5003;68436;55.068;73.284;2023-04-28T16:15:09;591.50;494.50;274.75
79038;PMS5003;68436;55.068;73.284;2023-04-28T16:17:35;587.50;489.75;276.00
79038;PMS5003;68436;55.068;73.284;2023-04-28T16:20:03;557.25;468.75;266.25
79038;PMS5003;68436;55.068;73.284;2023-04-28T16:22:35;533.00;452.67;262.00
79038;PMS5003;68436;55.068;73.284;2023-04-28T16:25:12;519.75;437.75;255.50
79038;PMS5003;68436;55.068;73.284;2023-04-28T16:27:56;497.00;422.25;249.50
79038;PMS5003;68436;55.068;73.284;2023-04-28T16:30:22;486.00;411.00;241.50
79038;PMS5003;68436;55.068;73.284;2023-04-28T16:32:48;468.50;397.00;238.25
79038;PMS5003;68436;55.068;73.284;2023-04-28T16:35:14;459.25;392.00;233.50
79038;PMS5003;68436;55.068;73.284;2023-04-28T16:37:58;445.33;381.33;229.00
79038;PMS5003;68436;55.068;73.284;2023-04-28T16:40:24;453.75;390.75;234.00
79038;PMS5003;68436;55.068;73.284;2023-04-28T16:42:50;450.00;380.00;227.00
79038;PMS5003;68436;55.068;73.284;2023-04-28T16:45:35;443.00;380.75;227.25
79038;PMS5003;68436;55.068;73.284;2023-04-28T16:48:13;437.00;372.33;227.00
79038;PMS5003;68436;55.068;73.284;2023-04-28T16:50:58;434.00;372.00;226.25
79038;PMS5003;68436;55.068;73.284;2023-04-28T16:53:24;428.00;370.67;224.67
79038;PMS5003;68436;55.068;73.284;2023-04-28T16:56:09;430.25;368.50;223.50
79038;PMS5003;68436;55.068;73.284;2023-04-28T16:58:35;433.00;367.33;225.67
79038;PMS5003;68436;55.068;73.284;2023-04-28T17:03:48;439.67;377.00;227.00
79038;PMS5003;68436;55.068;73.284;2023-04-28T17:06:14;432.25;370.50;227.25
79038;PMS5003;68436;55.068;73.284;2023-04-28T17:08:40;428.33;367.33;228.00